Weather History for KBKD - September, 2012

Change the Weather History Date:

Friday, September 7, 2012

  Actual Average (KABI) Record (KABI)
Temperature  
Mean Temperature 93 °F 78 °F  
Max Temperature 109 °F 90 °F 105 °F (2012)
Min Temperature 77 °F 67 °F 48 °F (1898)
Degree Days  
Heating Degree Days 0 0  
Month to date heating degree days 0  
Since 1 July heating degree days 0  
Cooling Degree Days 28 13  
Month to date cooling degree days 100  
Year to date cooling degree days 2045  
Growing Degree Days 43 (Base 50)    
Moisture  
Dew Point 54 °F    
Average Humidity 30    
Maximum Humidity 54    
Minimum Humidity 14    
Precipitation  
Precipitation 0.00 in 0.08 in 2.14 in (1991)
Month to date precipitation 0.56  
Year to date precipitation 17.52  
Sea Level Pressure  
Sea Level Pressure 29.86 in    
Wind  
Wind Speed 8 mph (South)    
Max Wind Speed 23 mph    
Max Gust Speed 34 mph    
Visibility 10 miles    
Events      
T = Trace of Precipitation, MM = Missing Value Source: NWS Daily Summary

Daily Weather History Graph

Daily Weather History Graph

Search for Another Location

Airport or City:

Trip Planner

Search our weather history database for the weather conditions in past years. The results will help you decide how hot, cold, wet, or windy it might be!

Date:

Astronomy

Sep. 07, 2012 Rise Set
Actual Time 7:14 AM CDT 7:51 PM CDT
Civil Twilight 6:49 AM CDT 8:16 PM CDT
Nautical Twilight 6:20 AM CDT 8:45 PM CDT
Astronomical Twilight 5:50 AM CDT 9:15 PM CDT
Moon No Moon Rise 1:44 PM CDT (9/7)
Length of Visible Light 13h 26m
Length of Day
12h 37m
Waning Gibbous, 58% of the Moon is Illuminated
Sep 7
Waning Gibbous
Sep 8
Last Quarter
Sep 15
New
Sep 22
First Quarter
Sep 29
Full

Hourly Weather History & Observations

Time (CDT) Temp. Heat Index Dew Point Humidity Pressure Visibility Wind Dir Wind Speed Gust Speed Precip Events Conditions
12:15 AM 84.2 °F 83.5 °F 57.2 °F 40% 29.89 in 10.0 mi SSE 8.1 mph - N/A   Clear
12:35 AM 84.2 °F 83.8 °F 59.0 °F 42% 29.89 in 10.0 mi South 6.9 mph - N/A   Clear
12:55 AM 84.2 °F 83.8 °F 59.0 °F 42% 29.89 in 10.0 mi South 8.1 mph - N/A   Clear
1:35 AM 84.2 °F 83.8 °F 59.0 °F 42% 29.88 in 10.0 mi South 6.9 mph - N/A   Clear
1:55 AM 84.2 °F 83.8 °F 59.0 °F 42% 29.88 in 10.0 mi South 6.9 mph - N/A   Clear
2:15 AM 84.2 °F 83.8 °F 59.0 °F 42% 29.88 in 10.0 mi South 6.9 mph - N/A   Clear
2:35 AM 84.2 °F 83.8 °F 59.0 °F 42% 29.88 in 10.0 mi South 6.9 mph - N/A   Clear
2:55 AM 82.4 °F 82.5 °F 59.0 °F 45% 29.87 in 10.0 mi South 8.1 mph - N/A   Clear
3:15 AM 82.4 °F 82.5 °F 59.0 °F 45% 29.87 in 10.0 mi South 9.2 mph - N/A   Clear
3:35 AM 82.4 °F 82.5 °F 59.0 °F 45% 29.87 in 10.0 mi South 8.1 mph - N/A   Clear
3:55 AM 82.4 °F 82.0 °F 57.2 °F 42% 29.87 in 10.0 mi South 5.8 mph - N/A   Clear
4:15 AM 80.6 °F 81.1 °F 59.0 °F 48% 29.87 in 10.0 mi South 4.6 mph - N/A   Clear
4:35 AM 78.8 °F - 59.0 °F 51% 29.86 in 10.0 mi South 9.2 mph - N/A   Clear
4:55 AM 80.6 °F 80.8 °F 57.2 °F 45% 29.86 in 10.0 mi South 8.1 mph - N/A   Clear
5:15 AM 80.6 °F 80.8 °F 57.2 °F 45% 29.86 in 10.0 mi South 4.6 mph - N/A   Clear
5:35 AM 78.8 °F - 57.2 °F 47% 29.87 in 10.0 mi South 4.6 mph - N/A   Clear
5:55 AM 78.8 °F - 57.2 °F 47% 29.87 in 10.0 mi South 4.6 mph - N/A   Clear
6:15 AM 77.0 °F - 59.0 °F 54% 29.88 in 10.0 mi South 8.1 mph - N/A   Clear
6:35 AM 78.8 °F - 59.0 °F 51% 29.88 in 10.0 mi South 6.9 mph - N/A   Clear
6:55 AM 78.8 °F - 59.0 °F 51% 29.88 in 10.0 mi SSE 9.2 mph - N/A   Clear
7:15 AM 77.0 °F - 59.0 °F 54% 29.88 in 10.0 mi South 8.1 mph - N/A   Clear
7:35 AM 77.0 °F - 59.0 °F 54% 29.89 in 10.0 mi South 5.8 mph - N/A   Clear
7:55 AM 78.8 °F - 59.0 °F 51% 29.90 in 10.0 mi South 4.6 mph - N/A   Clear
8:15 AM 80.6 °F 81.1 °F 59.0 °F 48% 29.90 in 10.0 mi SSW 6.9 mph - N/A   Clear
8:35 AM 82.4 °F 82.5 °F 59.0 °F 45% 29.90 in 10.0 mi SSW 6.9 mph - N/A   Clear
8:55 AM 84.2 °F 83.5 °F 57.2 °F 40% 29.90 in 10.0 mi SW 8.1 mph - N/A   Clear
9:15 AM 86.0 °F 84.9 °F 57.2 °F 37% 29.90 in 10.0 mi SSW 10.4 mph - N/A   Clear
9:35 AM 87.8 °F 86.5 °F 57.2 °F 35% 29.90 in 10.0 mi SW 10.4 mph - N/A   Clear
9:55 AM 91.4 °F 89.9 °F 57.2 °F 31% 29.91 in 10.0 mi SW 11.5 mph - N/A   Clear
10:15 AM 91.4 °F 89.9 °F 57.2 °F 31% 29.91 in 10.0 mi WSW 8.1 mph - N/A   Clear
10:35 AM 95.0 °F 93.7 °F 57.2 °F 28% 29.91 in 10.0 mi SW 8.1 mph - N/A   Clear
10:55 AM 96.8 °F 95.8 °F 57.2 °F 27% 29.91 in 10.0 mi WSW 10.4 mph - N/A   Clear
11:15 AM 98.6 °F 97.2 °F 55.4 °F 24% 29.91 in 10.0 mi West 10.4 mph - N/A   Clear
11:35 AM 98.6 °F 97.2 °F 55.4 °F 24% 29.90 in 10.0 mi SW 6.9 mph - N/A   Clear
11:55 AM 100.4 °F 98.8 °F 55.4 °F 22% 29.90 in 10.0 mi SW 4.6 mph - N/A   Clear
12:15 PM 102.2 °F 100.4 °F 53.6 °F 20% 29.88 in 10.0 mi SSW 4.6 mph - N/A   Clear
12:35 PM 104.0 °F 102.3 °F 53.6 °F 19% 29.88 in 10.0 mi SW 3.5 mph - N/A   Clear
12:55 PM 104.0 °F - 51.8 °F 17% 29.87 in 10.0 mi Calm Calm - N/A   Clear
1:15 PM 105.8 °F - 51.8 °F 17% 29.85 in 10.0 mi South 10.4 mph - N/A   Clear
1:35 PM 105.8 °F - 50.0 °F 15% 29.84 in 10.0 mi SSW 11.5 mph 17.3 mph N/A   Clear
1:55 PM 105.8 °F - 50.0 °F 15% 29.84 in 10.0 mi WSW 10.4 mph 16.1 mph N/A   Clear
2:15 PM 107.6 °F - 50.0 °F 15% 29.84 in 10.0 mi West 9.2 mph - N/A   Clear
2:35 PM 107.6 °F - 50.0 °F 15% 29.83 in 10.0 mi South 8.1 mph 19.6 mph N/A   Scattered Clouds
2:55 PM 107.6 °F - 48.2 °F 14% 29.82 in 10.0 mi SSE 11.5 mph - N/A   Scattered Clouds
3:15 PM 107.6 °F - 48.2 °F 14% 29.81 in 10.0 mi South 6.9 mph 17.3 mph N/A   Clear
3:35 PM 107.6 °F - 48.2 °F 14% 29.80 in 10.0 mi South 5.8 mph - N/A   Clear
3:55 PM 109.4 °F - 50.0 °F 14% 29.79 in 10.0 mi East 3.5 mph - N/A   Clear
4:15 PM 107.6 °F - 48.2 °F 14% 29.79 in 10.0 mi NW 3.5 mph - N/A   Clear
4:35 PM 105.8 °F - 48.2 °F 14% 29.79 in 10.0 mi SW 4.6 mph - N/A   Clear
4:55 PM 107.6 °F - 48.2 °F 14% 29.78 in 10.0 mi SE 4.6 mph - N/A   Scattered Clouds
5:15 PM 107.6 °F - 48.2 °F 14% 29.78 in 10.0 mi SSE 4.6 mph - N/A   Scattered Clouds
5:35 PM 105.8 °F - 46.4 °F 14% 29.77 in 10.0 mi South 4.6 mph - N/A   Clear
5:55 PM 105.8 °F - 46.4 °F 14% 29.77 in 10.0 mi SE 3.5 mph - N/A   Clear
6:15 PM 105.8 °F - 46.4 °F 14% 29.77 in 10.0 mi SSW 12.7 mph - N/A   Clear
6:35 PM 105.8 °F - 46.4 °F 14% 29.77 in 10.0 mi South 5.8 mph - N/A   Clear
6:55 PM 104.0 °F - 46.4 °F 14% 29.77 in 10.0 mi South 8.1 mph - N/A   Clear
7:15 PM 104.0 °F - 46.4 °F 14% 29.77 in 10.0 mi South 9.2 mph - N/A   Clear
7:35 PM 100.4 °F - 48.2 °F 17% 29.77 in 10.0 mi South 5.8 mph - N/A   Clear
7:55 PM 98.6 °F - 48.2 °F 18% 29.77 in 10.0 mi South 8.1 mph - N/A   Clear
8:15 PM 96.8 °F - 50.0 °F 20% 29.77 in 10.0 mi South 8.1 mph - N/A   Clear
8:35 PM 96.8 °F - 50.0 °F 20% 29.79 in 10.0 mi Calm Calm - N/A   Scattered Clouds
8:55 PM 98.6 °F - 48.2 °F 18% 29.81 in 10.0 mi NNE 5.8 mph - N/A   Mostly Cloudy
9:15 PM 98.6 °F - 48.2 °F 18% 29.83 in 10.0 mi NW 9.2 mph 17.3 mph N/A   Scattered Clouds
9:35 PM 87.8 °F - 51.8 °F 29% 29.87 in 5.0 mi North 20.7 mph 34.5 mph N/A   Haze
9:55 PM 86.0 °F 84.2 °F 53.6 °F 33% 29.90 in 7.0 mi NNE 23.0 mph 34.5 mph N/A   Mostly Cloudy
10:55 PM 80.6 °F 80.3 °F 53.6 °F 39% 29.95 in 10.0 mi NNE 18.4 mph 29.9 mph N/A   Clear
11:55 PM 78.8 °F - 53.6 °F 42% 30.00 in 10.0 mi NNE 18.4 mph 27.6 mph N/A   Clear